createdAt,value
2022-10-11T00:01:06.413Z,22.38
2022-10-11T00:04:12.473Z,22.73
2022-10-11T00:07:20.087Z,25.70
2022-10-11T00:10:25.870Z,16.23
2022-10-11T00:13:31.953Z,20.65
2022-10-11T00:16:41.133Z,24.67
2022-10-11T00:19:46.744Z,17.77
2022-10-11T00:22:52.052Z,19.70
2022-10-11T00:26:03.698Z,22.15
2022-10-11T00:29:09.818Z,18.77
2022-10-11T00:32:15.316Z,19.88
2022-10-11T00:35:20.974Z,19.75
2022-10-11T00:38:26.676Z,21.85
2022-10-11T00:41:32.483Z,26.48
2022-10-11T00:44:38.282Z,18.15
2022-10-11T00:47:44.297Z,26.70
2022-10-11T00:50:50.540Z,18.67
2022-10-11T00:53:55.922Z,17.75
2022-10-11T00:57:07.560Z,16.08
2022-10-11T01:00:15.109Z,18.77
2022-10-11T01:03:25.193Z,20.92
2022-10-11T01:06:30.788Z,21.98
2022-10-11T01:09:37.194Z,17.40
2022-10-11T01:13:08.822Z,19.60
2022-10-11T01:16:18.009Z,16.88
2022-10-11T01:19:38.973Z,19.15
2022-10-11T01:23:01.952Z,21.87
2022-10-11T01:26:57.012Z,20.92
2022-10-11T01:30:21.914Z,23.02
2022-10-11T01:33:45.810Z,19.08
2022-10-11T01:37:13.076Z,26.48
2022-10-11T01:40:25.504Z,20.83
2022-10-11T01:43:33.926Z,21.40
2022-10-11T01:46:39.434Z,24.98
2022-10-11T01:49:46.499Z,17.52
2022-10-11T01:52:52.486Z,20.92
2022-10-11T01:56:10.396Z,19.85
2022-10-11T01:59:28.993Z,20.17
2022-10-11T02:02:54.698Z,16.30
2022-10-11T02:06:17.653Z,24.77
2022-10-11T02:09:27.478Z,17.10
2022-10-11T02:12:49.752Z,22.50
2022-10-11T02:15:58.734Z,23.73
2022-10-11T02:19:07.109Z,18.65
2022-10-11T02:22:21.493Z,20.15
2022-10-11T02:25:30.920Z,18.63
2022-10-11T02:28:40.356Z,17.70
2022-10-11T02:31:47.713Z,19.08
2022-10-11T02:34:57.281Z,21.05
2022-10-11T02:38:20.145Z,23.95
2022-10-11T02:41:31.705Z,24.02
2022-10-11T02:44:43.956Z,26.80
2022-10-11T02:47:49.489Z,27.10
2022-10-11T02:50:56.934Z,30.02
2022-10-11T02:54:03.115Z,24.55
2022-10-11T02:57:08.970Z,27.90
2022-10-11T03:00:15.438Z,23.13
2022-10-11T03:03:20.930Z,28.73
2022-10-11T03:06:27.023Z,25.15
2022-10-11T03:09:32.369Z,25.85
2022-10-11T03:12:37.676Z,31.88
2022-10-11T03:15:43.184Z,24.92
2022-10-11T03:18:48.678Z,28.55
2022-10-11T03:21:54.297Z,30.40
2022-10-11T03:25:04.041Z,34.22
2022-10-11T03:28:10.270Z,29.60
2022-10-11T03:31:16.101Z,35.60
2022-10-11T03:34:21.809Z,38.53
2022-10-11T03:37:27.990Z,38.83
2022-10-11T03:40:33.725Z,36.53
2022-10-11T03:43:39.168Z,40.75
2022-10-11T03:46:44.564Z,34.75
2022-10-11T03:49:49.958Z,43.90
2022-10-11T03:52:55.560Z,32.80
2022-10-11T03:56:05.892Z,41.47
2022-10-11T03:59:13.675Z,42.15
2022-10-11T04:02:19.586Z,34.70
2022-10-11T04:05:25.912Z,35.58
2022-10-11T04:08:31.391Z,38.17
2022-10-11T04:11:36.699Z,41.47
2022-10-11T04:14:41.854Z,41.40
2022-10-11T04:17:47.059Z,31.75
2022-10-11T04:20:52.491Z,32.33
2022-10-11T04:23:57.962Z,39.63
2022-10-11T04:27:03.386Z,32.22
2022-10-11T04:30:09.828Z,33.35
2022-10-11T04:33:15.091Z,30.02
2022-10-11T04:36:20.594Z,36.03
2022-10-11T04:39:26.183Z,31.90
2022-10-11T04:42:31.566Z,31.10
2022-10-11T04:45:37.186Z,28.52
2022-10-11T04:48:43.169Z,30.33
2022-10-11T04:51:48.967Z,30.77
2022-10-11T04:54:54.255Z,27.45
2022-10-11T04:57:59.829Z,33.90
2022-10-11T05:01:05.532Z,28.67
2022-10-11T05:04:10.989Z,35.38
2022-10-11T05:07:16.727Z,38.97
2022-10-11T05:10:21.684Z,32.78
2022-10-11T05:13:28.429Z,32.83
2022-10-11T05:16:33.898Z,32.90
2022-10-11T05:19:39.455Z,28.95
2022-10-11T05:22:45.046Z,37.47
2022-10-11T05:25:50.788Z,30.38
2022-10-11T05:28:56.241Z,29.85
2022-10-11T05:32:01.915Z,29.23
2022-10-11T05:35:08.044Z,29.70
2022-10-11T05:38:13.258Z,34.63
2022-10-11T05:41:18.846Z,31.02
2022-10-11T05:44:24.662Z,27.17
2022-10-11T05:47:30.549Z,31.30
2022-10-11T05:50:37.062Z,28.02
2022-10-11T05:53:42.540Z,32.45
2022-10-11T05:56:48.857Z,27.98
2022-10-11T05:59:54.562Z,31.92
2022-10-11T06:03:00.492Z,27.77
2022-10-11T06:06:06.156Z,37.00
2022-10-11T06:09:12.643Z,31.35
2022-10-11T06:12:19.051Z,29.35
2022-10-11T06:15:25.595Z,29.70
2022-10-11T06:18:32.050Z,31.05
2022-10-11T06:21:37.729Z,28.05
2022-10-11T06:24:43.496Z,29.95
2022-10-11T06:27:49.214Z,31.80
2022-10-11T06:30:56.233Z,33.88
2022-10-11T06:34:02.404Z,30.98
2022-10-11T06:37:08.124Z,44.90
2022-10-11T06:40:13.711Z,35.78
2022-10-11T06:43:19.608Z,30.60
2022-10-11T06:46:27.733Z,30.50
2022-10-11T06:49:33.558Z,34.95
2022-10-11T06:52:38.934Z,30.33
2022-10-11T06:55:44.566Z,35.08
2022-10-11T06:58:51.690Z,33.60
2022-10-11T07:01:57.400Z,34.60
2022-10-11T07:05:02.979Z,34.20
2022-10-11T07:08:08.439Z,32.95
2022-10-11T07:11:27.023Z,39.38
2022-10-11T07:14:32.485Z,33.10
2022-10-11T07:17:38.053Z,35.78
2022-10-11T07:20:43.646Z,34.40
2022-10-11T07:23:49.521Z,34.83
2022-10-11T07:26:55.469Z,33.20
2022-10-11T07:30:00.905Z,36.13
2022-10-11T07:33:07.015Z,39.97
2022-10-11T07:36:13.683Z,36.03
2022-10-11T07:39:19.532Z,42.50
2022-10-11T07:42:24.971Z,36.97
2022-10-11T07:45:30.665Z,37.53
2022-10-11T07:48:37.515Z,35.47
2022-10-11T07:51:43.968Z,31.80
2022-10-11T07:54:50.172Z,32.83
2022-10-11T07:57:56.561Z,29.45
2022-10-11T08:01:02.444Z,31.58
2022-10-11T08:04:08.228Z,29.45
2022-10-11T08:07:13.844Z,30.85
2022-10-11T08:10:19.412Z,43.45
2022-10-11T08:13:24.912Z,28.60
2022-10-11T08:16:30.564Z,28.85
2022-10-11T08:19:36.233Z,40.58
2022-10-11T08:22:42.252Z,35.13
2022-10-11T08:25:48.893Z,38.83
2022-10-11T08:28:54.771Z,32.50
2022-10-11T08:32:01.221Z,31.48
2022-10-11T08:35:07.502Z,28.20
2022-10-11T08:38:14.471Z,32.83
2022-10-11T08:41:35.441Z,26.80
2022-10-11T08:45:16.458Z,33.20
2022-10-11T08:48:15.607Z,27.45
2022-10-11T08:52:04.965Z,24.55
2022-10-11T08:55:22.072Z,27.48
2022-10-11T08:58:59.400Z,25.25
2022-10-11T09:02:55.595Z,26.92
2022-10-11T09:06:20.745Z,23.75
2022-10-11T09:09:56.538Z,24.95
2022-10-11T09:13:13.998Z,22.55
2022-10-11T09:16:35.980Z,30.35
2022-10-11T09:19:44.094Z,29.90
2022-10-11T09:23:08.102Z,24.38
2022-10-11T09:26:16.811Z,30.77
2022-10-11T09:29:40.837Z,22.25
2022-10-11T09:33:02.748Z,22.73
2022-10-11T09:36:32.028Z,21.30
2022-10-11T09:39:45.653Z,24.13
2022-10-11T09:42:51.506Z,27.45
2022-10-11T09:45:57.350Z,23.88
2022-10-11T09:49:12.697Z,24.05
2022-10-11T09:52:21.241Z,20.92
2022-10-11T09:55:30.907Z,29.48
2022-10-11T09:58:39.041Z,24.75
2022-10-11T10:01:45.047Z,26.67
2022-10-11T10:05:08.754Z,24.38
2022-10-11T10:08:24.977Z,24.58
2022-10-11T10:11:37.497Z,25.08
2022-10-11T10:14:42.966Z,25.63
2022-10-11T10:17:51.439Z,28.73
2022-10-11T10:21:02.369Z,24.58
2022-10-11T10:24:33.733Z,23.58
2022-10-11T10:30:54.660Z,29.00
2022-10-11T10:34:01.961Z,20.42
2022-10-11T10:37:18.823Z,22.65
2022-10-11T10:40:50.843Z,21.98
2022-10-11T10:43:58.860Z,19.85
2022-10-11T10:47:07.247Z,22.20
2022-10-11T10:50:19.429Z,22.02
2022-10-11T10:53:37.710Z,25.42
2022-10-11T10:57:04.199Z,23.52
2022-10-11T11:00:17.661Z,20.40
2022-10-11T11:04:20.416Z,22.58
2022-10-11T11:07:39.378Z,19.20
2022-10-11T11:11:15.355Z,27.23
2022-10-11T11:14:59.059Z,24.75
2022-10-11T11:18:34.002Z,26.10
2022-10-11T11:21:44.558Z,20.98
2022-10-11T11:25:01.521Z,21.50
2022-10-11T11:28:32.705Z,21.70
2022-10-11T11:31:49.430Z,21.35
2022-10-11T11:35:08.451Z,25.92
2022-10-11T11:38:35.458Z,22.05
2022-10-11T11:41:48.306Z,24.08
2022-10-11T11:44:54.139Z,18.70
2022-10-11T11:48:24.968Z,19.08
2022-10-11T11:51:43.043Z,22.58
2022-10-11T11:54:53.703Z,25.23
2022-10-11T11:58:16.365Z,26.52
2022-10-11T12:01:43.003Z,24.95
2022-10-11T12:04:50.762Z,19.08
2022-10-11T12:08:01.448Z,22.60
2022-10-11T12:11:07.683Z,26.23
2022-10-11T12:14:31.535Z,23.02
2022-10-11T12:17:56.519Z,21.83
2022-10-11T12:21:17.844Z,25.20
2022-10-11T12:27:43.806Z,19.95
2022-10-11T12:30:48.834Z,18.23
2022-10-11T12:34:18.392Z,23.42
2022-10-11T12:37:23.841Z,22.77
2022-10-11T12:40:42.312Z,22.33
2022-10-11T12:43:50.403Z,20.40
2022-10-11T12:46:55.868Z,27.77
2022-10-11T12:50:26.181Z,21.35
2022-10-11T12:54:24.979Z,23.13
2022-10-11T12:57:31.892Z,23.83
2022-10-11T13:00:40.367Z,23.63
2022-10-11T13:03:49.583Z,27.08
2022-10-11T13:07:03.193Z,23.30
2022-10-11T13:10:16.539Z,23.48
2022-10-11T13:13:41.870Z,23.90
2022-10-11T13:17:05.709Z,26.60
2022-10-11T13:20:20.472Z,22.02
2022-10-11T13:23:36.092Z,21.40
2022-10-11T13:26:43.711Z,24.73
2022-10-11T13:29:51.797Z,21.55
2022-10-11T13:32:59.133Z,21.38
2022-10-11T13:36:08.949Z,19.95
2022-10-11T13:39:34.886Z,19.08
2022-10-11T13:42:40.847Z,22.95
2022-10-11T13:45:46.397Z,22.33
2022-10-11T13:49:03.534Z,26.80
2022-10-11T13:52:17.888Z,18.75
2022-10-11T13:55:51.587Z,20.40
2022-10-11T13:58:57.322Z,20.58
2022-10-11T14:02:04.921Z,20.17
2022-10-11T14:05:32.881Z,19.70
2022-10-11T14:08:44.225Z,23.08
2022-10-11T14:11:49.968Z,21.95
2022-10-11T14:14:55.945Z,21.70
2022-10-11T14:18:23.276Z,25.85
2022-10-11T14:21:46.087Z,26.60
2022-10-11T14:24:51.698Z,18.58
2022-10-11T14:27:57.683Z,15.98
2022-10-11T14:31:02.905Z,19.60
2022-10-11T14:34:16.198Z,30.70
2022-10-11T14:37:21.937Z,25.60
2022-10-11T14:40:30.359Z,23.58
2022-10-11T14:43:35.607Z,31.00
2022-10-11T14:46:41.506Z,21.00
2022-10-11T14:49:46.931Z,26.23
2022-10-11T14:52:51.908Z,28.92
2022-10-11T14:55:57.187Z,25.90
2022-10-11T14:59:02.370Z,24.70
2022-10-11T15:02:12.068Z,28.77
2022-10-11T15:05:17.544Z,29.63
2022-10-11T15:08:22.747Z,23.42
2022-10-11T15:11:28.180Z,22.85
2022-10-11T15:14:33.349Z,25.98
2022-10-11T15:17:38.575Z,16.80
2022-10-11T15:20:46.658Z,20.52
2022-10-11T15:23:53.908Z,25.05
2022-10-11T15:26:59.209Z,18.83
2022-10-11T15:30:13.981Z,20.20
2022-10-11T15:33:19.129Z,23.73
2022-10-11T15:36:24.340Z,23.02
2022-10-11T15:39:34.401Z,25.63
2022-10-11T15:42:39.848Z,21.67
2022-10-11T15:45:45.159Z,21.77
2022-10-11T15:48:52.849Z,21.52
2022-10-11T15:51:58.144Z,20.05
2022-10-11T15:55:03.852Z,22.95
2022-10-11T15:58:19.683Z,23.30
2022-10-11T16:01:25.787Z,24.92
2022-10-11T16:04:30.994Z,19.15
2022-10-11T16:07:36.214Z,22.65
2022-10-11T16:10:42.034Z,29.70
2022-10-11T16:13:49.372Z,21.65
2022-10-11T16:16:54.929Z,32.53
2022-10-11T16:20:00.805Z,24.80
2022-10-11T16:23:07.191Z,31.77
2022-10-11T16:26:16.828Z,22.83
2022-10-11T16:29:22.324Z,22.58
2022-10-11T16:32:28.977Z,23.88
2022-10-11T16:35:34.494Z,20.33
2022-10-11T16:38:39.922Z,29.73
2022-10-11T16:41:46.552Z,20.13
2022-10-11T16:44:52.754Z,32.72
2022-10-11T16:47:58.856Z,22.50
2022-10-11T16:51:08.552Z,31.05
2022-10-11T16:54:16.592Z,23.80
2022-10-11T17:00:30.080Z,23.48
2022-10-11T17:03:35.361Z,25.20
2022-10-11T17:06:41.526Z,27.50
2022-10-11T17:09:48.779Z,27.75
2022-10-11T17:12:55.440Z,25.58
2022-10-11T17:16:00.893Z,29.10
2022-10-11T17:19:13.423Z,29.50
2022-10-11T17:22:20.034Z,18.73
2022-10-11T17:25:25.721Z,24.75
2022-10-11T17:28:35.915Z,31.52
2022-10-11T17:31:48.117Z,26.00
2022-10-11T17:34:54.351Z,30.17
2022-10-11T17:38:05.722Z,33.08
2022-10-11T17:41:11.795Z,31.40
2022-10-11T17:44:18.692Z,31.52
2022-10-11T17:47:24.240Z,30.38
2022-10-11T17:50:29.876Z,27.65
2022-10-11T17:53:35.757Z,41.25
2022-10-11T17:56:42.252Z,34.20
2022-10-11T17:59:47.609Z,41.53
2022-10-11T18:02:53.529Z,29.50
2022-10-11T18:06:07.397Z,34.38
2022-10-11T18:09:14.712Z,25.00
2022-10-11T18:12:20.264Z,31.20
2022-10-11T18:15:26.160Z,33.85
2022-10-11T18:18:31.602Z,38.50
2022-10-11T18:21:38.222Z,31.63
2022-10-11T18:24:43.512Z,31.73
2022-10-11T18:27:50.816Z,31.02
2022-10-11T18:30:57.768Z,43.20
2022-10-11T18:34:05.446Z,31.17
2022-10-11T18:37:11.081Z,26.27
2022-10-11T18:40:17.199Z,35.28
2022-10-11T18:43:22.931Z,43.60
2022-10-11T18:46:29.436Z,36.08
2022-10-11T18:49:35.101Z,34.78
2022-10-11T18:52:44.457Z,38.38
2022-10-11T18:55:51.064Z,31.60
2022-10-11T18:58:58.070Z,34.45
2022-10-11T19:02:05.102Z,30.77
2022-10-11T19:05:10.783Z,46.67
2022-10-11T19:08:16.456Z,33.88
2022-10-11T19:11:25.505Z,46.42
2022-10-11T19:14:33.037Z,78.20
2022-10-11T19:17:39.224Z,47.00
2022-10-11T19:20:44.719Z,54.63
2022-10-11T19:23:50.720Z,43.38
2022-10-11T19:27:01.377Z,54.03
2022-10-11T19:30:09.062Z,48.53
2022-10-11T19:33:14.538Z,41.10
2022-10-11T19:36:20.420Z,44.35
2022-10-11T19:39:26.075Z,37.38
2022-10-11T19:42:31.889Z,47.10
2022-10-11T19:45:37.783Z,45.40
2022-10-11T19:48:46.607Z,44.05
2022-10-11T19:51:53.061Z,36.60
2022-10-11T19:54:58.525Z,40.58
2022-10-11T19:58:08.201Z,40.28
2022-10-11T20:01:19.290Z,40.38
2022-10-11T20:04:50.999Z,35.03
2022-10-11T20:07:51.684Z,40.40
2022-10-11T20:11:02.043Z,27.40
2022-10-11T20:14:07.687Z,37.30
2022-10-11T20:17:13.395Z,29.60
2022-10-11T20:20:19.534Z,33.67
2022-10-11T20:23:27.774Z,24.67
2022-10-11T20:26:34.647Z,26.45
2022-10-11T20:29:40.324Z,25.50
2022-10-11T20:32:45.780Z,19.90
2022-10-11T20:36:02.731Z,22.67
2022-10-11T20:39:08.182Z,23.55
2022-10-11T20:42:13.880Z,20.67
2022-10-11T20:45:19.346Z,22.30
2022-10-11T20:48:24.965Z,18.83
2022-10-11T20:51:32.647Z,18.67
2022-10-11T20:54:41.020Z,24.38
2022-10-11T20:57:46.420Z,20.75
2022-10-11T21:00:51.889Z,19.10
2022-10-11T21:03:59.247Z,19.05
2022-10-11T21:07:04.373Z,15.05
2022-10-11T21:10:09.963Z,18.75
2022-10-11T21:13:15.373Z,19.95
2022-10-11T21:16:20.765Z,21.05
2022-10-11T21:19:26.358Z,15.52
2022-10-11T21:22:32.794Z,17.50
2022-10-11T21:25:39.857Z,17.23
2022-10-11T21:28:46.969Z,18.60
2022-10-11T21:31:53.000Z,18.00
2022-10-11T21:34:58.521Z,15.80
2022-10-11T21:38:03.933Z,17.17
2022-10-11T21:41:13.003Z,18.13
2022-10-11T21:44:18.760Z,25.08
2022-10-11T21:47:24.151Z,19.35
2022-10-11T21:50:29.665Z,20.42
2022-10-11T21:53:35.046Z,20.13
2022-10-11T21:56:40.917Z,21.35
2022-10-11T21:59:46.239Z,18.55
2022-10-11T22:02:54.729Z,18.77
2022-10-11T22:06:03.644Z,24.20
2022-10-11T22:09:09.717Z,18.33
2022-10-11T22:12:14.949Z,19.75
2022-10-11T22:15:20.209Z,16.92
2022-10-11T22:18:25.732Z,15.68
2022-10-11T22:21:31.284Z,19.60
2022-10-11T22:24:36.919Z,24.73
2022-10-11T22:27:42.490Z,19.50
2022-10-11T22:30:48.786Z,19.10
2022-10-11T22:33:56.026Z,16.85
2022-10-11T22:37:01.473Z,21.45
2022-10-11T22:40:07.585Z,19.52
2022-10-11T22:43:13.576Z,18.80
2022-10-11T22:46:18.795Z,17.33
2022-10-11T22:49:24.479Z,22.13
2022-10-11T22:52:30.195Z,25.50
2022-10-11T22:55:35.947Z,21.95
2022-10-11T22:58:44.287Z,20.25
2022-10-11T23:01:49.431Z,18.50
2022-10-11T23:04:54.996Z,21.00
2022-10-11T23:08:00.413Z,20.25
2022-10-11T23:11:07.830Z,22.83
2022-10-11T23:14:13.158Z,20.42
2022-10-11T23:17:19.220Z,23.33
2022-10-11T23:20:24.718Z,23.73
2022-10-11T23:23:30.394Z,20.75
2022-10-11T23:26:35.801Z,20.02
2022-10-11T23:29:41.488Z,26.20
2022-10-11T23:32:47.078Z,18.75
2022-10-11T23:35:52.711Z,21.05
2022-10-11T23:38:59.546Z,21.67
2022-10-11T23:42:04.821Z,22.33
2022-10-11T23:45:10.847Z,25.67
2022-10-11T23:48:16.343Z,21.02
2022-10-11T23:51:21.778Z,17.38
2022-10-11T23:54:27.292Z,19.52
2022-10-11T23:57:32.768Z,24.80
